sensor_id;sensor_type;location;lat;lon;timestamp;temperature;humidity
10306;DHT22;5198;52.382;9.020;2023-04-15T00:02:30;8.00;99.90
10306;DHT22;5198;52.382;9.020;2023-04-15T00:06:35;8.00;99.90
10306;DHT22;5198;52.382;9.020;2023-04-15T00:10:38;8.00;99.90
10306;DHT22;5198;52.382;9.020;2023-04-15T00:14:42;8.00;99.90
10306;DHT22;5198;52.382;9.020;2023-04-15T00:18:45;8.10;99.90
10306;DHT22;5198;52.382;9.020;2023-04-15T00:22:49;8.10;99.90
10306;DHT22;5198;52.382;9.020;2023-04-15T00:26:52;8.10;99.90
10306;DHT22;5198;52.382;9.020;2023-04-15T00:30:55;8.10;99.90
10306;DHT22;5198;52.382;9.020;2023-04-15T00:34:58;8.10;99.90
10306;DHT22;5198;52.382;9.020;2023-04-15T00:39:02;8.00;99.90
10306;DHT22;5198;52.382;9.020;2023-04-15T00:43:05;8.00;99.90
10306;DHT22;5198;52.382;9.020;2023-04-15T00:47:08;8.00;99.90
10306;DHT22;5198;52.382;9.020;2023-04-15T00:51:12;8.00;99.90
10306;DHT22;5198;52.382;9.020;2023-04-15T00:55:16;8.00;99.90
10306;DHT22;5198;52.382;9.020;2023-04-15T00:59:19;8.00;99.90
10306;DHT22;5198;52.382;9.020;2023-04-15T01:03:22;8.00;99.90
10306;DHT22;5198;52.382;9.020;2023-04-15T01:07:26;8.00;99.90
10306;DHT22;5198;52.382;9.020;2023-04-15T01:11:30;8.00;99.90
10306;DHT22;5198;52.382;9.020;2023-04-15T01:15:34;8.00;99.90
10306;DHT22;5198;52.382;9.020;2023-04-15T01:19:38;8.00;99.90
10306;DHT22;5198;52.382;9.020;2023-04-15T01:23:41;8.00;99.90
10306;DHT22;5198;52.382;9.020;2023-04-15T01:27:47;8.00;99.90
10306;DHT22;5198;52.382;9.020;2023-04-15T01:31:50;8.00;99.90
10306;DHT22;5198;52.382;9.020;2023-04-15T01:35:53;8.00;99.90
10306;DHT22;5198;52.382;9.020;2023-04-15T01:39:57;8.00;99.90
10306;DHT22;5198;52.382;9.020;2023-04-15T01:44:01;8.00;99.90
10306;DHT22;5198;52.382;9.020;2023-04-15T01:48:04;8.00;99.90
10306;DHT22;5198;52.382;9.020;2023-04-15T01:52:07;7.90;99.90
10306;DHT22;5198;52.382;9.020;2023-04-15T01:56:10;7.90;99.90
10306;DHT22;5198;52.382;9.020;2023-04-15T02:00:18;7.90;99.90
10306;DHT22;5198;52.382;9.020;2023-04-15T02:04:21;7.90;99.90
10306;DHT22;5198;52.382;9.020;2023-04-15T02:08:24;7.90;99.90
10306;DHT22;5198;52.382;9.020;2023-04-15T02:12:27;7.90;99.90
10306;DHT22;5198;52.382;9.020;2023-04-15T02:16:31;7.80;99.90
10306;DHT22;5198;52.382;9.020;2023-04-15T02:20:34;7.80;99.90
10306;DHT22;5198;52.382;9.020;2023-04-15T02:24:38;7.80;99.90
10306;DHT22;5198;52.382;9.020;2023-04-15T02:28:41;7.80;99.90
10306;DHT22;5198;52.382;9.020;2023-04-15T02:32:45;7.80;99.90
10306;DHT22;5198;52.382;9.020;2023-04-15T02:36:49;7.80;99.90
10306;DHT22;5198;52.382;9.020;2023-04-15T02:40:55;7.90;99.90
10306;DHT22;5198;52.382;9.020;2023-04-15T02:44:58;7.90;99.90
10306;DHT22;5198;52.382;9.020;2023-04-15T02:49:02;7.90;99.90
10306;DHT22;5198;52.382;9.020;2023-04-15T02:53:05;7.90;99.90
10306;DHT22;5198;52.382;9.020;2023-04-15T02:57:10;7.80;99.90
10306;DHT22;5198;52.382;9.020;2023-04-15T03:01:13;7.90;99.90
10306;DHT22;5198;52.382;9.020;2023-04-15T03:05:17;7.90;99.90
10306;DHT22;5198;52.382;9.020;2023-04-15T03:09:20;7.90;99.90
10306;DHT22;5198;52.382;9.020;2023-04-15T03:13:23;7.90;99.90
10306;DHT22;5198;52.382;9.020;2023-04-15T03:17:27;7.90;99.90
10306;DHT22;5198;52.382;9.020;2023-04-15T03:21:31;7.90;99.90
10306;DHT22;5198;52.382;9.020;2023-04-15T03:25:34;7.80;99.90
10306;DHT22;5198;52.382;9.020;2023-04-15T03:29:38;7.80;99.90
10306;DHT22;5198;52.382;9.020;2023-04-15T03:33:41;7.80;99.90
10306;DHT22;5198;52.382;9.020;2023-04-15T03:37:45;7.80;99.90
10306;DHT22;5198;52.382;9.020;2023-04-15T03:41:49;7.80;99.90
10306;DHT22;5198;52.382;9.020;2023-04-15T03:45:52;7.80;99.90
10306;DHT22;5198;52.382;9.020;2023-04-15T03:49:55;7.70;99.90
10306;DHT22;5198;52.382;9.020;2023-04-15T03:53:59;7.70;99.90
10306;DHT22;5198;52.382;9.020;2023-04-15T03:58:02;7.70;99.90
10306;DHT22;5198;52.382;9.020;2023-04-15T04:02:05;7.70;99.90
10306;DHT22;5198;52.382;9.020;2023-04-15T04:06:08;7.60;99.90
10306;DHT22;5198;52.382;9.020;2023-04-15T04:10:14;7.60;99.90
10306;DHT22;5198;52.382;9.020;2023-04-15T04:14:17;7.60;99.90
10306;DHT22;5198;52.382;9.020;2023-04-15T04:18:20;7.60;99.90
10306;DHT22;5198;52.382;9.020;2023-04-15T04:22:23;7.60;99.90
10306;DHT22;5198;52.382;9.020;2023-04-15T04:26:27;7.60;99.90
10306;DHT22;5198;52.382;9.020;2023-04-15T04:30:31;7.60;99.90
10306;DHT22;5198;52.382;9.020;2023-04-15T04:34:34;7.60;99.90
10306;DHT22;5198;52.382;9.020;2023-04-15T04:38:37;7.60;99.90
10306;DHT22;5198;52.382;9.020;2023-04-15T04:42:41;7.60;99.90
10306;DHT22;5198;52.382;9.020;2023-04-15T04:46:44;7.60;99.90
10306;DHT22;5198;52.382;9.020;2023-04-15T04:50:47;7.60;99.90
10306;DHT22;5198;52.382;9.020;2023-04-15T04:54:50;7.70;99.90
10306;DHT22;5198;52.382;9.020;2023-04-15T04:58:54;7.70;99.90
10306;DHT22;5198;52.382;9.020;2023-04-15T05:02:57;7.70;99.90
10306;DHT22;5198;52.382;9.020;2023-04-15T05:07:01;7.70;99.90
10306;DHT22;5198;52.382;9.020;2023-04-15T05:11:04;7.70;99.90
10306;DHT22;5198;52.382;9.020;2023-04-15T05:15:09;7.80;99.90
10306;DHT22;5198;52.382;9.020;2023-04-15T05:19:12;7.80;99.90
10306;DHT22;5198;52.382;9.020;2023-04-15T05:23:15;7.80;99.90
10306;DHT22;5198;52.382;9.020;2023-04-15T05:27:18;7.80;99.90
10306;DHT22;5198;52.382;9.020;2023-04-15T05:31:22;7.80;99.90
10306;DHT22;5198;52.382;9.020;2023-04-15T05:35:25;7.90;99.90
10306;DHT22;5198;52.382;9.020;2023-04-15T05:39:28;7.90;99.90
10306;DHT22;5198;52.382;9.020;2023-04-15T05:43:33;7.90;99.90
10306;DHT22;5198;52.382;9.020;2023-04-15T05:47:38;7.90;99.90
10306;DHT22;5198;52.382;9.020;2023-04-15T05:51:41;7.90;99.90
10306;DHT22;5198;52.382;9.020;2023-04-15T05:55:44;8.00;99.90
10306;DHT22;5198;52.382;9.020;2023-04-15T05:59:47;7.90;99.90
10306;DHT22;5198;52.382;9.020;2023-04-15T06:03:53;7.90;99.90
10306;DHT22;5198;52.382;9.020;2023-04-15T06:07:57;7.90;99.90
10306;DHT22;5198;52.382;9.020;2023-04-15T06:12:00;7.90;99.90
10306;DHT22;5198;52.382;9.020;2023-04-15T06:16:03;8.00;99.90
10306;DHT22;5198;52.382;9.020;2023-04-15T06:20:08;8.00;99.90
10306;DHT22;5198;52.382;9.020;2023-04-15T06:24:11;8.00;99.90
10306;DHT22;5198;52.382;9.020;2023-04-15T06:28:14;8.00;99.90
10306;DHT22;5198;52.382;9.020;2023-04-15T06:32:17;8.00;99.90
10306;DHT22;5198;52.382;9.020;2023-04-15T06:36:21;8.10;99.90
10306;DHT22;5198;52.382;9.020;2023-04-15T06:40:24;8.10;99.90
10306;DHT22;5198;52.382;9.020;2023-04-15T06:44:27;8.10;99.90
10306;DHT22;5198;52.382;9.020;2023-04-15T06:48:34;8.10;99.90
10306;DHT22;5198;52.382;9.020;2023-04-15T06:52:38;8.10;99.90
10306;DHT22;5198;52.382;9.020;2023-04-15T06:56:41;8.10;99.90
10306;DHT22;5198;52.382;9.020;2023-04-15T07:00:44;8.10;99.90
10306;DHT22;5198;52.382;9.020;2023-04-15T07:04:47;8.10;99.90
10306;DHT22;5198;52.382;9.020;2023-04-15T07:08:51;8.10;99.90
10306;DHT22;5198;52.382;9.020;2023-04-15T07:12:54;8.10;99.90
10306;DHT22;5198;52.382;9.020;2023-04-15T07:16:57;8.10;99.90
10306;DHT22;5198;52.382;9.020;2023-04-15T07:21:01;8.10;99.90
10306;DHT22;5198;52.382;9.020;2023-04-15T07:25:06;8.10;99.90
10306;DHT22;5198;52.382;9.020;2023-04-15T07:29:09;8.10;99.90
10306;DHT22;5198;52.382;9.020;2023-04-15T07:33:12;8.10;99.90
10306;DHT22;5198;52.382;9.020;2023-04-15T07:37:15;8.10;99.90
10306;DHT22;5198;52.382;9.020;2023-04-15T07:41:22;8.20;99.90
10306;DHT22;5198;52.382;9.020;2023-04-15T07:45:24;8.20;99.90
10306;DHT22;5198;52.382;9.020;2023-04-15T07:49:27;8.20;99.90
10306;DHT22;5198;52.382;9.020;2023-04-15T07:53:30;8.20;99.90
10306;DHT22;5198;52.382;9.020;2023-04-15T07:57:35;8.20;99.90
10306;DHT22;5198;52.382;9.020;2023-04-15T08:01:38;8.20;99.90
10306;DHT22;5198;52.382;9.020;2023-04-15T08:05:41;8.30;99.90
10306;DHT22;5198;52.382;9.020;2023-04-15T08:09:45;8.30;99.90
10306;DHT22;5198;52.382;9.020;2023-04-15T08:13:50;8.30;99.90
10306;DHT22;5198;52.382;9.020;2023-04-15T08:17:53;8.30;99.90
10306;DHT22;5198;52.382;9.020;2023-04-15T08:21:56;8.30;99.90
10306;DHT22;5198;52.382;9.020;2023-04-15T08:25:59;8.30;99.90
10306;DHT22;5198;52.382;9.020;2023-04-15T08:30:04;8.40;99.90
10306;DHT22;5198;52.382;9.020;2023-04-15T08:34:07;8.40;99.90
10306;DHT22;5198;52.382;9.020;2023-04-15T08:38:10;8.40;99.90
10306;DHT22;5198;52.382;9.020;2023-04-15T08:42:15;8.50;99.90
10306;DHT22;5198;52.382;9.020;2023-04-15T08:46:20;8.50;99.90
10306;DHT22;5198;52.382;9.020;2023-04-15T08:50:24;8.50;99.90
10306;DHT22;5198;52.382;9.020;2023-04-15T08:54:28;8.60;99.90
10306;DHT22;5198;52.382;9.020;2023-04-15T08:58:31;8.60;99.90
10306;DHT22;5198;52.382;9.020;2023-04-15T09:02:36;8.60;99.90
10306;DHT22;5198;52.382;9.020;2023-04-15T09:06:39;8.70;99.90
10306;DHT22;5198;52.382;9.020;2023-04-15T09:10:43;8.70;99.90
10306;DHT22;5198;52.382;9.020;2023-04-15T09:14:46;8.70;99.90
10306;DHT22;5198;52.382;9.020;2023-04-15T09:18:51;8.80;99.90
10306;DHT22;5198;52.382;9.020;2023-04-15T09:22:54;8.80;99.90
10306;DHT22;5198;52.382;9.020;2023-04-15T09:26:57;8.90;99.90
10306;DHT22;5198;52.382;9.020;2023-04-15T09:31:00;8.90;99.90
10306;DHT22;5198;52.382;9.020;2023-04-15T09:35:11;9.00;99.90
10306;DHT22;5198;52.382;9.020;2023-04-15T09:39:14;9.00;99.90
10306;DHT22;5198;52.382;9.020;2023-04-15T09:43:17;9.00;99.90
10306;DHT22;5198;52.382;9.020;2023-04-15T09:47:26;9.10;99.90
10306;DHT22;5198;52.382;9.020;2023-04-15T09:51:33;9.10;99.90
10306;DHT22;5198;52.382;9.020;2023-04-15T09:55:36;9.20;99.90
10306;DHT22;5198;52.382;9.020;2023-04-15T09:59:39;9.20;99.90
10306;DHT22;5198;52.382;9.020;2023-04-15T10:03:43;9.20;99.90
10306;DHT22;5198;52.382;9.020;2023-04-15T10:07:48;9.20;99.90
10306;DHT22;5198;52.382;9.020;2023-04-15T10:11:52;9.20;99.90
10306;DHT22;5198;52.382;9.020;2023-04-15T10:15:56;9.20;99.90
10306;DHT22;5198;52.382;9.020;2023-04-15T10:19:59;9.30;99.90
10306;DHT22;5198;52.382;9.020;2023-04-15T10:24:04;9.30;99.90
10306;DHT22;5198;52.382;9.020;2023-04-15T10:28:07;9.30;99.90
10306;DHT22;5198;52.382;9.020;2023-04-15T10:32:10;9.30;99.90
10306;DHT22;5198;52.382;9.020;2023-04-15T10:36:14;9.30;99.90
10306;DHT22;5198;52.382;9.020;2023-04-15T10:40:26;9.30;99.90
10306;DHT22;5198;52.382;9.020;2023-04-15T10:44:29;9.40;99.90
10306;DHT22;5198;52.382;9.020;2023-04-15T10:48:32;9.40;99.90
10306;DHT22;5198;52.382;9.020;2023-04-15T10:52:36;9.40;99.90
10306;DHT22;5198;52.382;9.020;2023-04-15T10:56:43;9.40;99.90
10306;DHT22;5198;52.382;9.020;2023-04-15T11:00:49;9.40;99.90
10306;DHT22;5198;52.382;9.020;2023-04-15T11:04:53;9.40;99.90
10306;DHT22;5198;52.382;9.020;2023-04-15T11:08:57;9.40;99.90
10306;DHT22;5198;52.382;9.020;2023-04-15T11:13:06;9.40;99.90
10306;DHT22;5198;52.382;9.020;2023-04-15T11:17:25;9.50;99.90
10306;DHT22;5198;52.382;9.020;2023-04-15T11:21:29;9.50;99.90
10306;DHT22;5198;52.382;9.020;2023-04-15T11:25:32;9.50;99.90
10306;DHT22;5198;52.382;9.020;2023-04-15T11:29:37;9.50;99.90
10306;DHT22;5198;52.382;9.020;2023-04-15T11:33:44;9.50;99.90
10306;DHT22;5198;52.382;9.020;2023-04-15T11:37:47;9.50;99.90
10306;DHT22;5198;52.382;9.020;2023-04-15T11:41:50;9.60;99.90
10306;DHT22;5198;52.382;9.020;2023-04-15T11:45:55;9.60;99.90
10306;DHT22;5198;52.382;9.020;2023-04-15T11:50:12;9.60;99.90
10306;DHT22;5198;52.382;9.020;2023-04-15T11:54:17;9.60;99.90
10306;DHT22;5198;52.382;9.020;2023-04-15T11:58:20;9.70;99.90
10306;DHT22;5198;52.382;9.020;2023-04-15T12:02:30;9.70;99.90
10306;DHT22;5198;52.382;9.020;2023-04-15T12:06:33;9.70;99.90
10306;DHT22;5198;52.382;9.020;2023-04-15T12:10:37;9.70;99.90
10306;DHT22;5198;52.382;9.020;2023-04-15T12:14:40;9.80;99.90
10306;DHT22;5198;52.382;9.020;2023-04-15T12:18:45;9.80;99.90
10306;DHT22;5198;52.382;9.020;2023-04-15T12:22:48;9.80;99.90
10306;DHT22;5198;52.382;9.020;2023-04-15T12:26:52;9.80;99.90
10306;DHT22;5198;52.382;9.020;2023-04-15T12:30:55;9.80;99.90
10306;DHT22;5198;52.382;9.020;2023-04-15T12:34:59;9.90;99.90
10306;DHT22;5198;52.382;9.020;2023-04-15T12:39:02;9.90;99.90
10306;DHT22;5198;52.382;9.020;2023-04-15T12:43:06;9.90;99.90
10306;DHT22;5198;52.382;9.020;2023-04-15T12:47:09;10.00;99.90
10306;DHT22;5198;52.382;9.020;2023-04-15T12:51:14;10.00;99.90
10306;DHT22;5198;52.382;9.020;2023-04-15T12:55:17;10.00;99.90
10306;DHT22;5198;52.382;9.020;2023-04-15T12:59:20;10.10;99.90
10306;DHT22;5198;52.382;9.020;2023-04-15T13:03:24;10.10;99.90
10306;DHT22;5198;52.382;9.020;2023-04-15T13:07:29;10.10;99.90
10306;DHT22;5198;52.382;9.020;2023-04-15T13:11:32;10.10;99.90
10306;DHT22;5198;52.382;9.020;2023-04-15T13:15:35;10.20;99.90
10306;DHT22;5198;52.382;9.020;2023-04-15T13:19:38;10.20;99.90
10306;DHT22;5198;52.382;9.020;2023-04-15T13:23:42;10.20;99.90
10306;DHT22;5198;52.382;9.020;2023-04-15T13:27:45;10.20;99.90
10306;DHT22;5198;52.382;9.020;2023-04-15T13:31:48;10.30;99.90
10306;DHT22;5198;52.382;9.020;2023-04-15T13:35:59;10.30;99.90
10306;DHT22;5198;52.382;9.020;2023-04-15T13:40:04;10.30;99.90
10306;DHT22;5198;52.382;9.020;2023-04-15T13:44:07;10.30;99.90
10306;DHT22;5198;52.382;9.020;2023-04-15T13:48:10;10.30;99.90
10306;DHT22;5198;52.382;9.020;2023-04-15T13:52:24;10.30;99.90
10306;DHT22;5198;52.382;9.020;2023-04-15T13:56:28;10.30;99.90
10306;DHT22;5198;52.382;9.020;2023-04-15T14:00:33;10.30;99.90
10306;DHT22;5198;52.382;9.020;2023-04-15T14:04:36;10.40;99.90
10306;DHT22;5198;52.382;9.020;2023-04-15T14:08:39;10.40;99.90
10306;DHT22;5198;52.382;9.020;2023-04-15T14:12:43;10.40;99.90
10306;DHT22;5198;52.382;9.020;2023-04-15T14:16:46;10.40;99.90
10306;DHT22;5198;52.382;9.020;2023-04-15T14:20:49;10.40;99.90
10306;DHT22;5198;52.382;9.020;2023-04-15T14:24:52;10.40;99.90
10306;DHT22;5198;52.382;9.020;2023-04-15T14:28:57;10.40;99.90
10306;DHT22;5198;52.382;9.020;2023-04-15T14:33:00;10.40;99.90
10306;DHT22;5198;52.382;9.020;2023-04-15T14:37:03;10.40;99.90
10306;DHT22;5198;52.382;9.020;2023-04-15T14:41:06;10.50;99.90
10306;DHT22;5198;52.382;9.020;2023-04-15T14:45:11;10.50;99.90
10306;DHT22;5198;52.382;9.020;2023-04-15T14:49:13;10.50;99.90
10306;DHT22;5198;52.382;9.020;2023-04-15T14:53:16;10.60;99.90
10306;DHT22;5198;52.382;9.020;2023-04-15T14:57:19;10.60;99.90
10306;DHT22;5198;52.382;9.020;2023-04-15T15:01:23;10.60;99.90
10306;DHT22;5198;52.382;9.020;2023-04-15T15:05:28;10.70;99.90
10306;DHT22;5198;52.382;9.020;2023-04-15T15:09:31;10.70;99.90
10306;DHT22;5198;52.382;9.020;2023-04-15T15:17:40;10.80;99.90
10306;DHT22;5198;52.382;9.020;2023-04-15T15:21:42;10.90;99.90
10306;DHT22;5198;52.382;9.020;2023-04-15T15:25:45;10.90;99.90
10306;DHT22;5198;52.382;9.020;2023-04-15T15:29:48;10.90;99.90
10306;DHT22;5198;52.382;9.020;2023-04-15T15:33:53;11.00;99.90
10306;DHT22;5198;52.382;9.020;2023-04-15T15:37:55;11.00;99.90
10306;DHT22;5198;52.382;9.020;2023-04-15T15:41:58;11.00;99.90
10306;DHT22;5198;52.382;9.020;2023-04-15T15:46:01;11.00;99.90
10306;DHT22;5198;52.382;9.020;2023-04-15T15:50:06;11.00;99.90
10306;DHT22;5198;52.382;9.020;2023-04-15T15:54:09;11.00;99.90
10306;DHT22;5198;52.382;9.020;2023-04-15T15:58:12;11.10;99.90
10306;DHT22;5198;52.382;9.020;2023-04-15T16:02:15;11.10;99.90
10306;DHT22;5198;52.382;9.020;2023-04-15T16:06:19;11.10;99.90
10306;DHT22;5198;52.382;9.020;2023-04-15T16:10:22;11.20;99.90
10306;DHT22;5198;52.382;9.020;2023-04-15T16:14:25;11.30;99.90
10306;DHT22;5198;52.382;9.020;2023-04-15T16:18:28;11.50;99.90
10306;DHT22;5198;52.382;9.020;2023-04-15T16:22:32;11.50;99.90
10306;DHT22;5198;52.382;9.020;2023-04-15T16:26:35;11.70;99.90
10306;DHT22;5198;52.382;9.020;2023-04-15T16:30:39;11.80;99.90
10306;DHT22;5198;52.382;9.020;2023-04-15T16:34:42;11.80;99.90
10306;DHT22;5198;52.382;9.020;2023-04-15T16:38:46;11.80;99.90
10306;DHT22;5198;52.382;9.020;2023-04-15T16:42:49;11.80;99.90
10306;DHT22;5198;52.382;9.020;2023-04-15T16:46:56;11.90;99.90
10306;DHT22;5198;52.382;9.020;2023-04-15T16:51:00;11.90;99.90
10306;DHT22;5198;52.382;9.020;2023-04-15T16:55:04;11.90;99.90
10306;DHT22;5198;52.382;9.020;2023-04-15T16:59:07;11.80;99.90
10306;DHT22;5198;52.382;9.020;2023-04-15T17:03:13;11.80;99.90
10306;DHT22;5198;52.382;9.020;2023-04-15T17:07:16;11.80;99.90
10306;DHT22;5198;52.382;9.020;2023-04-15T17:11:20;11.80;99.90
10306;DHT22;5198;52.382;9.020;2023-04-15T17:15:23;11.70;99.90
10306;DHT22;5198;52.382;9.020;2023-04-15T17:19:26;11.70;99.90
10306;DHT22;5198;52.382;9.020;2023-04-15T17:23:29;11.70;99.90
10306;DHT22;5198;52.382;9.020;2023-04-15T17:27:33;11.60;99.90
10306;DHT22;5198;52.382;9.020;2023-04-15T17:31:36;11.60;99.90
10306;DHT22;5198;52.382;9.020;2023-04-15T17:35:39;11.50;99.90
10306;DHT22;5198;52.382;9.020;2023-04-15T17:39:42;11.50;99.90
10306;DHT22;5198;52.382;9.020;2023-04-15T17:43:46;11.50;99.90
10306;DHT22;5198;52.382;9.020;2023-04-15T17:47:49;11.50;99.90
10306;DHT22;5198;52.382;9.020;2023-04-15T17:51:52;11.40;99.90
10306;DHT22;5198;52.382;9.020;2023-04-15T17:55:56;11.40;99.90
10306;DHT22;5198;52.382;9.020;2023-04-15T18:00:01;11.40;99.90
10306;DHT22;5198;52.382;9.020;2023-04-15T18:04:04;11.30;99.90
10306;DHT22;5198;52.382;9.020;2023-04-15T18:08:09;11.30;99.90
10306;DHT22;5198;52.382;9.020;2023-04-15T18:12:11;11.30;99.90
10306;DHT22;5198;52.382;9.020;2023-04-15T18:16:17;11.30;99.90
10306;DHT22;5198;52.382;9.020;2023-04-15T18:20:20;11.30;99.90
10306;DHT22;5198;52.382;9.020;2023-04-15T18:24:23;11.20;99.90
10306;DHT22;5198;52.382;9.020;2023-04-15T18:28:25;11.20;99.90
10306;DHT22;5198;52.382;9.020;2023-04-15T18:32:30;11.20;99.90
10306;DHT22;5198;52.382;9.020;2023-04-15T18:36:33;11.20;99.90
10306;DHT22;5198;52.382;9.020;2023-04-15T18:40:36;11.10;99.90
10306;DHT22;5198;52.382;9.020;2023-04-15T18:44:39;11.10;99.90
10306;DHT22;5198;52.382;9.020;2023-04-15T18:48:43;11.10;99.90
10306;DHT22;5198;52.382;9.020;2023-04-15T18:52:46;11.10;99.90
10306;DHT22;5198;52.382;9.020;2023-04-15T18:56:49;11.10;99.90
10306;DHT22;5198;52.382;9.020;2023-04-15T19:00:52;11.00;99.90
10306;DHT22;5198;52.382;9.020;2023-04-15T19:04:57;11.00;99.90
10306;DHT22;5198;52.382;9.020;2023-04-15T19:09:02;11.00;99.90
10306;DHT22;5198;52.382;9.020;2023-04-15T19:13:05;11.00;99.90
10306;DHT22;5198;52.382;9.020;2023-04-15T19:17:08;11.00;99.90
10306;DHT22;5198;52.382;9.020;2023-04-15T19:21:13;11.00;99.90
10306;DHT22;5198;52.382;9.020;2023-04-15T19:25:16;11.00;99.90
10306;DHT22;5198;52.382;9.020;2023-04-15T19:29:19;11.00;99.90
10306;DHT22;5198;52.382;9.020;2023-04-15T19:33:22;11.00;99.90
10306;DHT22;5198;52.382;9.020;2023-04-15T19:37:29;11.00;99.90
10306;DHT22;5198;52.382;9.020;2023-04-15T19:41:32;11.00;99.90
10306;DHT22;5198;52.382;9.020;2023-04-15T19:45:34;11.00;99.90
10306;DHT22;5198;52.382;9.020;2023-04-15T19:49:39;11.00;99.90
10306;DHT22;5198;52.382;9.020;2023-04-15T19:53:43;10.90;99.90
10306;DHT22;5198;52.382;9.020;2023-04-15T19:57:46;10.90;99.90
10306;DHT22;5198;52.382;9.020;2023-04-15T20:01:50;10.90;99.90
10306;DHT22;5198;52.382;9.020;2023-04-15T20:05:54;10.80;99.90
10306;DHT22;5198;52.382;9.020;2023-04-15T20:09:58;10.80;99.90
10306;DHT22;5198;52.382;9.020;2023-04-15T20:14:01;10.80;99.90
10306;DHT22;5198;52.382;9.020;2023-04-15T20:18:04;10.70;99.90
10306;DHT22;5198;52.382;9.020;2023-04-15T20:22:07;10.70;99.90
10306;DHT22;5198;52.382;9.020;2023-04-15T20:26:11;10.60;99.90
10306;DHT22;5198;52.382;9.020;2023-04-15T20:30:14;10.60;99.90
10306;DHT22;5198;52.382;9.020;2023-04-15T20:34:17;10.50;99.90
10306;DHT22;5198;52.382;9.020;2023-04-15T20:38:20;10.50;99.90
10306;DHT22;5198;52.382;9.020;2023-04-15T20:42:24;10.40;99.90
10306;DHT22;5198;52.382;9.020;2023-04-15T20:46:27;10.40;99.90
10306;DHT22;5198;52.382;9.020;2023-04-15T20:50:31;10.30;99.90
10306;DHT22;5198;52.382;9.020;2023-04-15T20:54:34;10.30;99.90
10306;DHT22;5198;52.382;9.020;2023-04-15T20:58:38;10.30;99.90
10306;DHT22;5198;52.382;9.020;2023-04-15T21:02:42;10.20;99.90
10306;DHT22;5198;52.382;9.020;2023-04-15T21:06:45;10.10;99.90
10306;DHT22;5198;52.382;9.020;2023-04-15T21:10:48;10.10;99.90
10306;DHT22;5198;52.382;9.020;2023-04-15T21:14:52;10.00;99.90
10306;DHT22;5198;52.382;9.020;2023-04-15T21:18:55;9.90;99.90
10306;DHT22;5198;52.382;9.020;2023-04-15T21:22:58;9.80;99.90
10306;DHT22;5198;52.382;9.020;2023-04-15T21:27:01;9.70;99.90
10306;DHT22;5198;52.382;9.020;2023-04-15T21:31:05;9.60;99.90
10306;DHT22;5198;52.382;9.020;2023-04-15T21:35:08;9.60;99.90
10306;DHT22;5198;52.382;9.020;2023-04-15T21:39:11;9.60;99.90
10306;DHT22;5198;52.382;9.020;2023-04-15T21:43:14;9.50;99.90
10306;DHT22;5198;52.382;9.020;2023-04-15T21:47:18;9.50;99.90
10306;DHT22;5198;52.382;9.020;2023-04-15T21:51:21;9.50;99.90
10306;DHT22;5198;52.382;9.020;2023-04-15T21:55:24;9.60;99.90
10306;DHT22;5198;52.382;9.020;2023-04-15T21:59:27;9.60;99.90
10306;DHT22;5198;52.382;9.020;2023-04-15T22:03:34;9.70;99.90
10306;DHT22;5198;52.382;9.020;2023-04-15T22:07:37;9.70;99.90
10306;DHT22;5198;52.382;9.020;2023-04-15T22:11:40;9.70;99.90
10306;DHT22;5198;52.382;9.020;2023-04-15T22:15:43;9.80;99.90
10306;DHT22;5198;52.382;9.020;2023-04-15T22:19:47;9.80;99.90
10306;DHT22;5198;52.382;9.020;2023-04-15T22:23:50;9.80;99.90
10306;DHT22;5198;52.382;9.020;2023-04-15T22:28:13;9.90;99.90
10306;DHT22;5198;52.382;9.020;2023-04-15T22:32:16;9.90;99.90
10306;DHT22;5198;52.382;9.020;2023-04-15T22:36:20;9.90;99.90
10306;DHT22;5198;52.382;9.020;2023-04-15T22:40:23;10.00;99.90
10306;DHT22;5198;52.382;9.020;2023-04-15T22:44:26;10.00;99.90
10306;DHT22;5198;52.382;9.020;2023-04-15T22:48:28;10.00;99.90
10306;DHT22;5198;52.382;9.020;2023-04-15T22:52:33;10.00;99.90
10306;DHT22;5198;52.382;9.020;2023-04-15T22:56:36;10.00;99.90
10306;DHT22;5198;52.382;9.020;2023-04-15T23:00:38;10.10;99.90
10306;DHT22;5198;52.382;9.020;2023-04-15T23:04:41;10.10;99.90
10306;DHT22;5198;52.382;9.020;2023-04-15T23:08:46;10.10;99.90
10306;DHT22;5198;52.382;9.020;2023-04-15T23:12:48;10.10;99.90
10306;DHT22;5198;52.382;9.020;2023-04-15T23:16:51;10.10;99.90
10306;DHT22;5198;52.382;9.020;2023-04-15T23:20:54;10.10;99.90
10306;DHT22;5198;52.382;9.020;2023-04-15T23:24:59;10.10;99.90
10306;DHT22;5198;52.382;9.020;2023-04-15T23:29:01;10.10;99.90
10306;DHT22;5198;52.382;9.020;2023-04-15T23:33:04;10.10;99.90
10306;DHT22;5198;52.382;9.020;2023-04-15T23:37:07;10.20;99.90
10306;DHT22;5198;52.382;9.020;2023-04-15T23:41:11;10.20;99.90
10306;DHT22;5198;52.382;9.020;2023-04-15T23:45:14;10.20;99.90
10306;DHT22;5198;52.382;9.020;2023-04-15T23:49:17;10.20;99.90
10306;DHT22;5198;52.382;9.020;2023-04-15T23:53:21;10.20;99.90
10306;DHT22;5198;52.382;9.020;2023-04-15T23:57:25;10.20;99.90
